sensor_id;sensor_type;location;lat;lon;timestamp;temperature;humidity
10129;DHT22;5104;50.720;7.044;2023-01-04T00:02:10;9.00;99.90
10129;DHT22;5104;50.720;7.044;2023-01-04T00:04:37;9.00;99.90
10129;DHT22;5104;50.720;7.044;2023-01-04T00:07:04;8.90;99.90
10129;DHT22;5104;50.720;7.044;2023-01-04T00:09:31;9.00;99.90
10129;DHT22;5104;50.720;7.044;2023-01-04T00:11:59;9.00;99.90
10129;DHT22;5104;50.720;7.044;2023-01-04T00:14:26;9.00;99.90
10129;DHT22;5104;50.720;7.044;2023-01-04T00:16:53;9.00;99.90
10129;DHT22;5104;50.720;7.044;2023-01-04T00:19:20;9.00;99.90
10129;DHT22;5104;50.720;7.044;2023-01-04T00:21:46;9.00;99.90
10129;DHT22;5104;50.720;7.044;2023-01-04T00:24:13;9.00;99.90
10129;DHT22;5104;50.720;7.044;2023-01-04T00:26:40;9.00;99.90
10129;DHT22;5104;50.720;7.044;2023-01-04T00:29:11;9.10;99.90
10129;DHT22;5104;50.720;7.044;2023-01-04T00:31:38;9.10;99.90
10129;DHT22;5104;50.720;7.044;2023-01-04T00:34:05;9.10;99.90
10129;DHT22;5104;50.720;7.044;2023-01-04T00:36:32;9.10;99.90
10129;DHT22;5104;50.720;7.044;2023-01-04T00:39:00;9.10;99.90
10129;DHT22;5104;50.720;7.044;2023-01-04T00:41:38;9.10;99.90
10129;DHT22;5104;50.720;7.044;2023-01-04T00:44:07;9.10;99.90
10129;DHT22;5104;50.720;7.044;2023-01-04T00:46:35;9.10;99.90
10129;DHT22;5104;50.720;7.044;2023-01-04T00:49:02;9.10;99.90
10129;DHT22;5104;50.720;7.044;2023-01-04T00:51:30;9.10;99.90
10129;DHT22;5104;50.720;7.044;2023-01-04T00:53:59;9.10;99.90
10129;DHT22;5104;50.720;7.044;2023-01-04T00:56:27;9.10;99.90
10129;DHT22;5104;50.720;7.044;2023-01-04T00:58:54;9.20;99.90
10129;DHT22;5104;50.720;7.044;2023-01-04T01:01:21;9.20;99.90
10129;DHT22;5104;50.720;7.044;2023-01-04T01:03:52;9.20;99.90
10129;DHT22;5104;50.720;7.044;2023-01-04T01:06:20;9.20;99.90
10129;DHT22;5104;50.720;7.044;2023-01-04T01:08:47;9.20;99.90
10129;DHT22;5104;50.720;7.044;2023-01-04T01:11:13;9.20;99.90
10129;DHT22;5104;50.720;7.044;2023-01-04T01:13:40;9.20;99.90
10129;DHT22;5104;50.720;7.044;2023-01-04T01:16:09;9.30;99.90
10129;DHT22;5104;50.720;7.044;2023-01-04T01:18:37;9.30;99.90
10129;DHT22;5104;50.720;7.044;2023-01-04T01:21:06;9.40;99.90
10129;DHT22;5104;50.720;7.044;2023-01-04T01:23:34;9.30;99.90
10129;DHT22;5104;50.720;7.044;2023-01-04T01:26:01;9.40;99.90
10129;DHT22;5104;50.720;7.044;2023-01-04T01:28:28;9.40;99.90
10129;DHT22;5104;50.720;7.044;2023-01-04T01:30:55;9.40;99.90
10129;DHT22;5104;50.720;7.044;2023-01-04T01:33:24;9.40;99.90
10129;DHT22;5104;50.720;7.044;2023-01-04T01:35:50;9.30;99.90
10129;DHT22;5104;50.720;7.044;2023-01-04T01:38:18;9.20;99.90
10129;DHT22;5104;50.720;7.044;2023-01-04T01:40:45;9.10;99.90
10129;DHT22;5104;50.720;7.044;2023-01-04T01:43:17;9.00;99.90
10129;DHT22;5104;50.720;7.044;2023-01-04T01:45:46;9.00;99.90
10129;DHT22;5104;50.720;7.044;2023-01-04T01:48:16;9.00;99.90
10129;DHT22;5104;50.720;7.044;2023-01-04T01:50:46;9.10;99.90
10129;DHT22;5104;50.720;7.044;2023-01-04T01:53:15;9.00;99.90
10129;DHT22;5104;50.720;7.044;2023-01-04T01:55:44;9.00;99.90
10129;DHT22;5104;50.720;7.044;2023-01-04T01:58:18;9.10;99.90
10129;DHT22;5104;50.720;7.044;2023-01-04T02:00:47;9.10;99.90
10129;DHT22;5104;50.720;7.044;2023-01-04T02:03:15;9.10;99.90
10129;DHT22;5104;50.720;7.044;2023-01-04T02:05:44;9.10;99.90
10129;DHT22;5104;50.720;7.044;2023-01-04T02:08:13;9.20;99.90
10129;DHT22;5104;50.720;7.044;2023-01-04T02:10:40;9.30;99.90
10129;DHT22;5104;50.720;7.044;2023-01-04T02:13:11;9.30;99.90
10129;DHT22;5104;50.720;7.044;2023-01-04T02:15:49;9.40;99.90
10129;DHT22;5104;50.720;7.044;2023-01-04T02:18:23;9.40;99.90
10129;DHT22;5104;50.720;7.044;2023-01-04T02:20:54;9.40;99.90
10129;DHT22;5104;50.720;7.044;2023-01-04T02:24:01;9.40;99.90
10129;DHT22;5104;50.720;7.044;2023-01-04T02:27:15;9.40;99.90
10129;DHT22;5104;50.720;7.044;2023-01-04T02:30:33;9.50;99.90
10129;DHT22;5104;50.720;7.044;2023-01-04T02:33:26;9.50;99.90
10129;DHT22;5104;50.720;7.044;2023-01-04T02:36:01;9.50;99.90
10129;DHT22;5104;50.720;7.044;2023-01-04T02:38:38;9.60;99.90
10129;DHT22;5104;50.720;7.044;2023-01-04T02:41:14;9.60;99.90
10129;DHT22;5104;50.720;7.044;2023-01-04T02:43:49;9.60;99.90
10129;DHT22;5104;50.720;7.044;2023-01-04T02:46:41;9.70;99.90
10129;DHT22;5104;50.720;7.044;2023-01-04T02:49:10;9.70;99.90
10129;DHT22;5104;50.720;7.044;2023-01-04T02:51:54;9.70;99.90
10129;DHT22;5104;50.720;7.044;2023-01-04T02:54:25;9.70;99.90
10129;DHT22;5104;50.720;7.044;2023-01-04T02:57:06;9.70;99.90
10129;DHT22;5104;50.720;7.044;2023-01-04T03:02:44;9.70;99.90
10129;DHT22;5104;50.720;7.044;2023-01-04T03:05:40;9.70;99.90
10129;DHT22;5104;50.720;7.044;2023-01-04T03:08:30;9.70;99.90
10129;DHT22;5104;50.720;7.044;2023-01-04T03:11:01;9.70;99.90
10129;DHT22;5104;50.720;7.044;2023-01-04T03:13:32;9.70;99.90
10129;DHT22;5104;50.720;7.044;2023-01-04T03:16:03;9.70;99.90
10129;DHT22;5104;50.720;7.044;2023-01-04T03:18:35;9.80;99.90
10129;DHT22;5104;50.720;7.044;2023-01-04T03:21:07;9.70;99.90
10129;DHT22;5104;50.720;7.044;2023-01-04T03:23:36;9.70;99.90
10129;DHT22;5104;50.720;7.044;2023-01-04T03:26:22;9.70;99.90
10129;DHT22;5104;50.720;7.044;2023-01-04T03:29:12;9.70;99.90
10129;DHT22;5104;50.720;7.044;2023-01-04T03:32:02;9.70;99.90
10129;DHT22;5104;50.720;7.044;2023-01-04T03:34:47;9.80;99.90
10129;DHT22;5104;50.720;7.044;2023-01-04T03:37:38;9.70;99.90
10129;DHT22;5104;50.720;7.044;2023-01-04T03:40:18;9.80;99.90
10129;DHT22;5104;50.720;7.044;2023-01-04T03:43:06;9.70;99.90
10129;DHT22;5104;50.720;7.044;2023-01-04T03:45:56;9.70;99.90
10129;DHT22;5104;50.720;7.044;2023-01-04T03:48:46;9.70;99.90
10129;DHT22;5104;50.720;7.044;2023-01-04T03:51:16;9.60;99.90
10129;DHT22;5104;50.720;7.044;2023-01-04T03:53:50;9.60;99.90
10129;DHT22;5104;50.720;7.044;2023-01-04T03:56:21;9.60;99.90
10129;DHT22;5104;50.720;7.044;2023-01-04T03:58:48;9.60;99.90
10129;DHT22;5104;50.720;7.044;2023-01-04T04:01:17;9.60;99.90
10129;DHT22;5104;50.720;7.044;2023-01-04T04:03:45;9.60;99.90
10129;DHT22;5104;50.720;7.044;2023-01-04T04:06:29;9.60;99.90
10129;DHT22;5104;50.720;7.044;2023-01-04T04:09:14;9.60;99.90
10129;DHT22;5104;50.720;7.044;2023-01-04T04:11:41;9.60;99.90
10129;DHT22;5104;50.720;7.044;2023-01-04T04:14:08;9.70;99.90
10129;DHT22;5104;50.720;7.044;2023-01-04T04:16:35;9.60;99.90
10129;DHT22;5104;50.720;7.044;2023-01-04T04:19:01;9.60;99.90
10129;DHT22;5104;50.720;7.044;2023-01-04T04:21:29;9.60;99.90
10129;DHT22;5104;50.720;7.044;2023-01-04T04:23:56;9.60;99.90
10129;DHT22;5104;50.720;7.044;2023-01-04T04:26:24;9.60;99.90
10129;DHT22;5104;50.720;7.044;2023-01-04T04:28:51;9.50;99.90
10129;DHT22;5104;50.720;7.044;2023-01-04T04:31:17;9.50;99.90
10129;DHT22;5104;50.720;7.044;2023-01-04T04:33:44;9.40;99.90
10129;DHT22;5104;50.720;7.044;2023-01-04T04:36:11;9.40;99.90
10129;DHT22;5104;50.720;7.044;2023-01-04T04:38:38;9.30;99.90
10129;DHT22;5104;50.720;7.044;2023-01-04T04:41:06;9.30;99.90
10129;DHT22;5104;50.720;7.044;2023-01-04T04:43:53;9.30;99.90
10129;DHT22;5104;50.720;7.044;2023-01-04T04:46:20;9.40;99.90
10129;DHT22;5104;50.720;7.044;2023-01-04T04:48:47;9.40;99.90
10129;DHT22;5104;50.720;7.044;2023-01-04T04:51:14;9.40;99.90
10129;DHT22;5104;50.720;7.044;2023-01-04T04:53:41;9.40;99.90
10129;DHT22;5104;50.720;7.044;2023-01-04T04:56:08;9.40;99.90
10129;DHT22;5104;50.720;7.044;2023-01-04T04:58:35;9.50;99.90
10129;DHT22;5104;50.720;7.044;2023-01-04T05:01:06;9.50;99.90
10129;DHT22;5104;50.720;7.044;2023-01-04T05:03:33;9.50;99.90
10129;DHT22;5104;50.720;7.044;2023-01-04T05:06:00;9.60;99.90
10129;DHT22;5104;50.720;7.044;2023-01-04T05:08:27;9.50;99.90
10129;DHT22;5104;50.720;7.044;2023-01-04T05:10:54;9.60;99.90
10129;DHT22;5104;50.720;7.044;2023-01-04T05:13:21;9.60;99.90
10129;DHT22;5104;50.720;7.044;2023-01-04T05:15:49;9.50;99.90
10129;DHT22;5104;50.720;7.044;2023-01-04T05:18:19;9.60;99.90
10129;DHT22;5104;50.720;7.044;2023-01-04T05:20:47;9.60;99.90
10129;DHT22;5104;50.720;7.044;2023-01-04T05:23:15;9.60;99.90
10129;DHT22;5104;50.720;7.044;2023-01-04T05:25:43;9.60;99.90
10129;DHT22;5104;50.720;7.044;2023-01-04T05:28:10;9.70;99.90
10129;DHT22;5104;50.720;7.044;2023-01-04T05:30:37;9.70;99.90
10129;DHT22;5104;50.720;7.044;2023-01-04T05:33:16;9.70;99.90
10129;DHT22;5104;50.720;7.044;2023-01-04T05:35:44;9.70;99.90
10129;DHT22;5104;50.720;7.044;2023-01-04T05:38:11;9.60;99.90
10129;DHT22;5104;50.720;7.044;2023-01-04T05:40:38;9.60;99.90
10129;DHT22;5104;50.720;7.044;2023-01-04T05:43:05;9.60;99.90
10129;DHT22;5104;50.720;7.044;2023-01-04T05:45:32;9.60;99.90
10129;DHT22;5104;50.720;7.044;2023-01-04T05:47:59;9.60;99.90
10129;DHT22;5104;50.720;7.044;2023-01-04T05:50:26;9.60;99.90
10129;DHT22;5104;50.720;7.044;2023-01-04T05:52:55;9.60;99.90
10129;DHT22;5104;50.720;7.044;2023-01-04T05:55:21;9.60;99.90
10129;DHT22;5104;50.720;7.044;2023-01-04T05:57:49;9.60;99.90
10129;DHT22;5104;50.720;7.044;2023-01-04T06:00:16;9.60;99.90
10129;DHT22;5104;50.720;7.044;2023-01-04T06:02:43;9.60;99.90
10129;DHT22;5104;50.720;7.044;2023-01-04T06:05:10;9.60;99.90
10129;DHT22;5104;50.720;7.044;2023-01-04T06:07:38;9.60;99.90
10129;DHT22;5104;50.720;7.044;2023-01-04T06:10:08;9.70;99.90
10129;DHT22;5104;50.720;7.044;2023-01-04T06:12:35;9.80;99.90
10129;DHT22;5104;50.720;7.044;2023-01-04T06:15:03;9.80;99.90
10129;DHT22;5104;50.720;7.044;2023-01-04T06:17:30;9.70;99.90
10129;DHT22;5104;50.720;7.044;2023-01-04T06:19:57;9.70;99.90
10129;DHT22;5104;50.720;7.044;2023-01-04T06:22:24;9.70;99.90
10129;DHT22;5104;50.720;7.044;2023-01-04T06:24:52;9.70;99.90
10129;DHT22;5104;50.720;7.044;2023-01-04T06:27:20;9.70;99.90
10129;DHT22;5104;50.720;7.044;2023-01-04T06:29:47;9.80;99.90
10129;DHT22;5104;50.720;7.044;2023-01-04T06:32:14;9.70;99.90
10129;DHT22;5104;50.720;7.044;2023-01-04T06:34:40;9.70;99.90
10129;DHT22;5104;50.720;7.044;2023-01-04T06:37:07;9.70;99.90
10129;DHT22;5104;50.720;7.044;2023-01-04T06:39:35;9.80;99.90
10129;DHT22;5104;50.720;7.044;2023-01-04T06:42:02;9.80;99.90
10129;DHT22;5104;50.720;7.044;2023-01-04T06:44:30;9.70;99.90
10129;DHT22;5104;50.720;7.044;2023-01-04T06:46:57;9.80;99.90
10129;DHT22;5104;50.720;7.044;2023-01-04T06:49:24;9.80;99.90
10129;DHT22;5104;50.720;7.044;2023-01-04T06:51:51;9.90;99.90
10129;DHT22;5104;50.720;7.044;2023-01-04T06:54:18;9.90;99.90
10129;DHT22;5104;50.720;7.044;2023-01-04T06:56:44;9.90;99.90
10129;DHT22;5104;50.720;7.044;2023-01-04T06:59:11;9.90;99.90
10129;DHT22;5104;50.720;7.044;2023-01-04T07:01:39;9.90;99.90
10129;DHT22;5104;50.720;7.044;2023-01-04T07:04:06;9.90;99.90
10129;DHT22;5104;50.720;7.044;2023-01-04T07:06:33;9.90;99.90
10129;DHT22;5104;50.720;7.044;2023-01-04T07:09:00;9.90;99.90
10129;DHT22;5104;50.720;7.044;2023-01-04T07:11:27;9.90;99.90
10129;DHT22;5104;50.720;7.044;2023-01-04T07:13:54;10.00;99.90
10129;DHT22;5104;50.720;7.044;2023-01-04T07:16:20;10.00;99.90
10129;DHT22;5104;50.720;7.044;2023-01-04T07:18:49;10.00;99.90
10129;DHT22;5104;50.720;7.044;2023-01-04T07:21:15;10.00;99.90
10129;DHT22;5104;50.720;7.044;2023-01-04T07:23:42;10.00;99.90
10129;DHT22;5104;50.720;7.044;2023-01-04T07:26:09;10.00;99.90
10129;DHT22;5104;50.720;7.044;2023-01-04T07:28:36;10.10;99.90
10129;DHT22;5104;50.720;7.044;2023-01-04T07:31:21;10.10;99.90
10129;DHT22;5104;50.720;7.044;2023-01-04T07:33:49;10.10;99.90
10129;DHT22;5104;50.720;7.044;2023-01-04T07:36:16;10.10;99.90
10129;DHT22;5104;50.720;7.044;2023-01-04T07:38:43;10.10;99.90
10129;DHT22;5104;50.720;7.044;2023-01-04T07:41:10;10.10;99.90
10129;DHT22;5104;50.720;7.044;2023-01-04T07:43:37;10.10;99.90
10129;DHT22;5104;50.720;7.044;2023-01-04T07:46:04;10.10;99.90
10129;DHT22;5104;50.720;7.044;2023-01-04T07:48:31;10.10;99.90
10129;DHT22;5104;50.720;7.044;2023-01-04T07:50:59;10.10;99.90
10129;DHT22;5104;50.720;7.044;2023-01-04T07:53:26;10.20;99.90
10129;DHT22;5104;50.720;7.044;2023-01-04T07:55:57;10.20;99.90
10129;DHT22;5104;50.720;7.044;2023-01-04T07:58:24;10.20;99.90
10129;DHT22;5104;50.720;7.044;2023-01-04T08:00:51;10.30;99.90
10129;DHT22;5104;50.720;7.044;2023-01-04T08:03:18;10.30;99.90
10129;DHT22;5104;50.720;7.044;2023-01-04T08:05:45;10.30;99.90
10129;DHT22;5104;50.720;7.044;2023-01-04T08:08:13;10.40;99.90
10129;DHT22;5104;50.720;7.044;2023-01-04T08:10:40;10.40;99.90
10129;DHT22;5104;50.720;7.044;2023-01-04T08:13:07;10.40;99.90
10129;DHT22;5104;50.720;7.044;2023-01-04T08:15:33;10.40;99.90
10129;DHT22;5104;50.720;7.044;2023-01-04T08:18:00;10.40;99.90
10129;DHT22;5104;50.720;7.044;2023-01-04T08:20:27;10.40;99.90
10129;DHT22;5104;50.720;7.044;2023-01-04T08:22:54;10.30;99.90
10129;DHT22;5104;50.720;7.044;2023-01-04T08:25:22;10.40;99.90
10129;DHT22;5104;50.720;7.044;2023-01-04T08:27:51;10.40;99.90
10129;DHT22;5104;50.720;7.044;2023-01-04T08:30:18;10.40;99.90
10129;DHT22;5104;50.720;7.044;2023-01-04T08:32:45;10.50;99.90
10129;DHT22;5104;50.720;7.044;2023-01-04T08:35:13;10.50;99.90
10129;DHT22;5104;50.720;7.044;2023-01-04T08:37:40;10.50;99.90
10129;DHT22;5104;50.720;7.044;2023-01-04T08:40:08;10.60;99.90
10129;DHT22;5104;50.720;7.044;2023-01-04T08:42:37;10.60;99.90
10129;DHT22;5104;50.720;7.044;2023-01-04T08:45:04;10.70;99.90
10129;DHT22;5104;50.720;7.044;2023-01-04T08:47:32;10.70;99.90
10129;DHT22;5104;50.720;7.044;2023-01-04T08:49:59;10.80;99.90
10129;DHT22;5104;50.720;7.044;2023-01-04T08:52:26;10.80;99.90
10129;DHT22;5104;50.720;7.044;2023-01-04T08:54:53;10.90;99.90
10129;DHT22;5104;50.720;7.044;2023-01-04T08:57:19;10.90;99.90
10129;DHT22;5104;50.720;7.044;2023-01-04T08:59:48;10.90;99.90
10129;DHT22;5104;50.720;7.044;2023-01-04T09:02:21;11.00;99.90
10129;DHT22;5104;50.720;7.044;2023-01-04T09:04:48;11.00;99.90
10129;DHT22;5104;50.720;7.044;2023-01-04T09:07:15;11.10;99.90
10129;DHT22;5104;50.720;7.044;2023-01-04T09:09:42;11.10;99.90
10129;DHT22;5104;50.720;7.044;2023-01-04T09:12:09;11.20;99.90
10129;DHT22;5104;50.720;7.044;2023-01-04T09:14:37;11.30;99.90
10129;DHT22;5104;50.720;7.044;2023-01-04T09:17:05;11.40;99.90
10129;DHT22;5104;50.720;7.044;2023-01-04T09:19:32;11.40;99.90
10129;DHT22;5104;50.720;7.044;2023-01-04T09:21:59;11.50;99.90
10129;DHT22;5104;50.720;7.044;2023-01-04T09:24:26;11.60;99.90
10129;DHT22;5104;50.720;7.044;2023-01-04T09:26:53;11.70;99.90
10129;DHT22;5104;50.720;7.044;2023-01-04T09:29:20;11.80;99.90
10129;DHT22;5104;50.720;7.044;2023-01-04T09:31:49;11.80;99.90
10129;DHT22;5104;50.720;7.044;2023-01-04T09:34:17;11.90;99.90
10129;DHT22;5104;50.720;7.044;2023-01-04T09:36:44;12.00;99.90
10129;DHT22;5104;50.720;7.044;2023-01-04T09:39:11;12.10;99.90
10129;DHT22;5104;50.720;7.044;2023-01-04T09:41:42;12.10;99.90
10129;DHT22;5104;50.720;7.044;2023-01-04T09:44:18;12.20;99.90
10129;DHT22;5104;50.720;7.044;2023-01-04T09:46:51;12.30;99.90
10129;DHT22;5104;50.720;7.044;2023-01-04T09:49:24;12.40;99.90
10129;DHT22;5104;50.720;7.044;2023-01-04T09:51:56;12.40;99.90
10129;DHT22;5104;50.720;7.044;2023-01-04T09:54:29;12.50;99.90
10129;DHT22;5104;50.720;7.044;2023-01-04T09:56:58;12.60;99.90
10129;DHT22;5104;50.720;7.044;2023-01-04T09:59:28;12.60;99.90
10129;DHT22;5104;50.720;7.044;2023-01-04T10:02:00;12.50;99.90
10129;DHT22;5104;50.720;7.044;2023-01-04T10:04:39;12.50;99.90
10129;DHT22;5104;50.720;7.044;2023-01-04T10:07:13;12.50;99.90
10129;DHT22;5104;50.720;7.044;2023-01-04T10:09:42;12.50;99.90
10129;DHT22;5104;50.720;7.044;2023-01-04T10:12:22;12.60;99.90
10129;DHT22;5104;50.720;7.044;2023-01-04T10:15:01;12.60;99.90
10129;DHT22;5104;50.720;7.044;2023-01-04T10:17:50;12.60;99.90
10129;DHT22;5104;50.720;7.044;2023-01-04T10:20:53;12.70;99.90
10129;DHT22;5104;50.720;7.044;2023-01-04T10:23:32;12.70;99.90
10129;DHT22;5104;50.720;7.044;2023-01-04T10:26:07;12.80;99.90
10129;DHT22;5104;50.720;7.044;2023-01-04T10:28:44;12.90;99.90
10129;DHT22;5104;50.720;7.044;2023-01-04T10:31:16;13.00;99.90
10129;DHT22;5104;50.720;7.044;2023-01-04T10:33:46;13.10;99.90
10129;DHT22;5104;50.720;7.044;2023-01-04T10:36:18;13.20;99.60
10129;DHT22;5104;50.720;7.044;2023-01-04T10:38:46;13.30;99.30
10129;DHT22;5104;50.720;7.044;2023-01-04T10:41:19;13.30;97.80
10129;DHT22;5104;50.720;7.044;2023-01-04T10:43:58;13.20;97.70
10129;DHT22;5104;50.720;7.044;2023-01-04T10:46:29;13.20;99.90
10129;DHT22;5104;50.720;7.044;2023-01-04T10:49:01;13.10;99.90
10129;DHT22;5104;50.720;7.044;2023-01-04T10:51:38;13.00;99.90
10129;DHT22;5104;50.720;7.044;2023-01-04T10:54:12;13.00;99.90
10129;DHT22;5104;50.720;7.044;2023-01-04T10:56:47;12.90;99.90
10129;DHT22;5104;50.720;7.044;2023-01-04T10:59:22;13.00;99.90
10129;DHT22;5104;50.720;7.044;2023-01-04T11:01:55;12.90;99.90
10129;DHT22;5104;50.720;7.044;2023-01-04T11:04:27;12.90;99.90
10129;DHT22;5104;50.720;7.044;2023-01-04T11:07:00;13.00;99.90
10129;DHT22;5104;50.720;7.044;2023-01-04T11:09:33;13.00;99.90
10129;DHT22;5104;50.720;7.044;2023-01-04T11:12:01;13.10;99.90
10129;DHT22;5104;50.720;7.044;2023-01-04T11:14:28;12.90;99.90
10129;DHT22;5104;50.720;7.044;2023-01-04T11:16:57;12.90;99.90
10129;DHT22;5104;50.720;7.044;2023-01-04T11:19:26;12.90;99.90
10129;DHT22;5104;50.720;7.044;2023-01-04T11:21:59;12.80;99.90
10129;DHT22;5104;50.720;7.044;2023-01-04T11:24:29;12.80;99.90
10129;DHT22;5104;50.720;7.044;2023-01-04T11:26:57;12.70;99.90
10129;DHT22;5104;50.720;7.044;2023-01-04T11:29:31;12.70;99.90
10129;DHT22;5104;50.720;7.044;2023-01-04T11:32:02;12.70;99.90
10129;DHT22;5104;50.720;7.044;2023-01-04T11:34:49;12.60;99.90
10129;DHT22;5104;50.720;7.044;2023-01-04T11:37:26;12.60;99.90
10129;DHT22;5104;50.720;7.044;2023-01-04T11:40:10;12.60;99.90
10129;DHT22;5104;50.720;7.044;2023-01-04T11:42:37;12.70;99.90
10129;DHT22;5104;50.720;7.044;2023-01-04T11:45:04;12.80;99.90
10129;DHT22;5104;50.720;7.044;2023-01-04T11:47:31;12.80;99.90
10129;DHT22;5104;50.720;7.044;2023-01-04T11:49:58;12.80;99.90
10129;DHT22;5104;50.720;7.044;2023-01-04T11:52:30;12.70;99.90
10129;DHT22;5104;50.720;7.044;2023-01-04T11:55:15;12.70;99.90
10129;DHT22;5104;50.720;7.044;2023-01-04T11:57:42;12.80;99.90
10129;DHT22;5104;50.720;7.044;2023-01-04T12:00:13;12.70;99.90
10129;DHT22;5104;50.720;7.044;2023-01-04T12:02:40;12.80;99.90
10129;DHT22;5104;50.720;7.044;2023-01-04T12:05:16;12.90;99.90
10129;DHT22;5104;50.720;7.044;2023-01-04T12:07:45;12.90;99.90
10129;DHT22;5104;50.720;7.044;2023-01-04T12:10:20;13.00;99.90
10129;DHT22;5104;50.720;7.044;2023-01-04T12:12:49;13.00;99.90
10129;DHT22;5104;50.720;7.044;2023-01-04T12:15:20;13.00;99.90
10129;DHT22;5104;50.720;7.044;2023-01-04T12:17:55;13.10;99.90
10129;DHT22;5104;50.720;7.044;2023-01-04T12:20:27;13.10;99.90
10129;DHT22;5104;50.720;7.044;2023-01-04T12:22:55;13.10;99.90
10129;DHT22;5104;50.720;7.044;2023-01-04T12:25:30;13.10;99.90
10129;DHT22;5104;50.720;7.044;2023-01-04T12:27:58;13.10;99.90
10129;DHT22;5104;50.720;7.044;2023-01-04T12:30:37;13.20;99.90
10129;DHT22;5104;50.720;7.044;2023-01-04T12:33:37;13.20;99.90
10129;DHT22;5104;50.720;7.044;2023-01-04T12:36:06;13.20;99.90
10129;DHT22;5104;50.720;7.044;2023-01-04T12:38:57;13.20;99.90
10129;DHT22;5104;50.720;7.044;2023-01-04T12:44:59;13.20;99.90
10129;DHT22;5104;50.720;7.044;2023-01-04T12:47:45;13.20;99.90
10129;DHT22;5104;50.720;7.044;2023-01-04T12:50:30;13.10;99.90
10129;DHT22;5104;50.720;7.044;2023-01-04T12:53:00;13.10;99.90
10129;DHT22;5104;50.720;7.044;2023-01-04T12:55:59;13.10;99.90
10129;DHT22;5104;50.720;7.044;2023-01-04T13:01:24;13.20;99.90
10129;DHT22;5104;50.720;7.044;2023-01-04T13:03:55;13.20;99.90
10129;DHT22;5104;50.720;7.044;2023-01-04T13:06:25;13.30;99.90
10129;DHT22;5104;50.720;7.044;2023-01-04T13:08:53;13.30;99.90
10129;DHT22;5104;50.720;7.044;2023-01-04T13:11:54;13.30;99.90
10129;DHT22;5104;50.720;7.044;2023-01-04T13:14:29;13.40;99.90
10129;DHT22;5104;50.720;7.044;2023-01-04T13:17:16;13.40;99.90
10129;DHT22;5104;50.720;7.044;2023-01-04T13:19:44;13.40;99.90
10129;DHT22;5104;50.720;7.044;2023-01-04T13:22:20;13.50;99.90
10129;DHT22;5104;50.720;7.044;2023-01-04T13:24:48;13.50;99.90
10129;DHT22;5104;50.720;7.044;2023-01-04T13:27:18;13.50;99.90
10129;DHT22;5104;50.720;7.044;2023-01-04T13:29:46;13.50;99.90
10129;DHT22;5104;50.720;7.044;2023-01-04T13:32:18;13.60;99.90
10129;DHT22;5104;50.720;7.044;2023-01-04T13:34:50;13.50;99.90
10129;DHT22;5104;50.720;7.044;2023-01-04T13:37:28;13.50;99.90
10129;DHT22;5104;50.720;7.044;2023-01-04T13:40:20;13.50;99.90
10129;DHT22;5104;50.720;7.044;2023-01-04T13:42:55;13.50;99.90
10129;DHT22;5104;50.720;7.044;2023-01-04T13:45:46;13.50;99.90
10129;DHT22;5104;50.720;7.044;2023-01-04T13:48:16;13.50;99.90
10129;DHT22;5104;50.720;7.044;2023-01-04T13:50:45;13.40;99.90
10129;DHT22;5104;50.720;7.044;2023-01-04T13:53:24;13.40;99.90
10129;DHT22;5104;50.720;7.044;2023-01-04T13:55:53;13.40;99.90
10129;DHT22;5104;50.720;7.044;2023-01-04T13:58:23;13.40;99.90
10129;DHT22;5104;50.720;7.044;2023-01-04T14:00:52;13.50;99.90
10129;DHT22;5104;50.720;7.044;2023-01-04T14:03:27;13.50;99.90
10129;DHT22;5104;50.720;7.044;2023-01-04T14:06:03;13.50;99.90
10129;DHT22;5104;50.720;7.044;2023-01-04T14:08:39;13.40;99.90
10129;DHT22;5104;50.720;7.044;2023-01-04T14:11:14;13.40;99.90
10129;DHT22;5104;50.720;7.044;2023-01-04T14:14:15;13.40;99.90
10129;DHT22;5104;50.720;7.044;2023-01-04T14:16:43;13.50;99.90
10129;DHT22;5104;50.720;7.044;2023-01-04T14:19:40;13.40;99.90
10129;DHT22;5104;50.720;7.044;2023-01-04T14:22:41;13.40;99.90
10129;DHT22;5104;50.720;7.044;2023-01-04T14:25:38;13.40;99.90
10129;DHT22;5104;50.720;7.044;2023-01-04T14:28:19;13.50;99.90
10129;DHT22;5104;50.720;7.044;2023-01-04T14:30:55;13.50;99.90
10129;DHT22;5104;50.720;7.044;2023-01-04T14:33:40;13.50;99.90
10129;DHT22;5104;50.720;7.044;2023-01-04T14:36:11;13.50;99.90
10129;DHT22;5104;50.720;7.044;2023-01-04T14:38:40;13.40;99.90
10129;DHT22;5104;50.720;7.044;2023-01-04T14:41:17;13.40;99.90
10129;DHT22;5104;50.720;7.044;2023-01-04T14:43:47;13.50;99.90
10129;DHT22;5104;50.720;7.044;2023-01-04T14:46:16;13.40;99.90
10129;DHT22;5104;50.720;7.044;2023-01-04T14:48:43;13.40;99.90
10129;DHT22;5104;50.720;7.044;2023-01-04T14:51:13;13.40;99.90
10129;DHT22;5104;50.720;7.044;2023-01-04T14:53:41;13.40;99.90
10129;DHT22;5104;50.720;7.044;2023-01-04T14:56:10;13.40;99.90
10129;DHT22;5104;50.720;7.044;2023-01-04T14:58:38;13.40;99.90
10129;DHT22;5104;50.720;7.044;2023-01-04T15:01:05;13.40;99.90
10129;DHT22;5104;50.720;7.044;2023-01-04T15:03:33;13.40;99.90
10129;DHT22;5104;50.720;7.044;2023-01-04T15:06:00;13.40;99.90
10129;DHT22;5104;50.720;7.044;2023-01-04T15:08:27;13.40;99.90
10129;DHT22;5104;50.720;7.044;2023-01-04T15:10:54;13.40;99.90
10129;DHT22;5104;50.720;7.044;2023-01-04T15:13:21;13.40;99.90
10129;DHT22;5104;50.720;7.044;2023-01-04T15:15:48;13.40;99.90
10129;DHT22;5104;50.720;7.044;2023-01-04T15:18:15;13.40;99.90
10129;DHT22;5104;50.720;7.044;2023-01-04T15:20:44;13.40;99.90
10129;DHT22;5104;50.720;7.044;2023-01-04T15:23:11;13.40;99.90
10129;DHT22;5104;50.720;7.044;2023-01-04T15:25:38;13.30;99.90
10129;DHT22;5104;50.720;7.044;2023-01-04T15:28:06;13.30;99.90
10129;DHT22;5104;50.720;7.044;2023-01-04T15:30:33;13.30;99.90
10129;DHT22;5104;50.720;7.044;2023-01-04T15:32:59;13.30;99.90
10129;DHT22;5104;50.720;7.044;2023-01-04T15:35:26;13.20;99.90
10129;DHT22;5104;50.720;7.044;2023-01-04T15:37:55;13.20;99.90
10129;DHT22;5104;50.720;7.044;2023-01-04T15:40:21;13.20;99.90
10129;DHT22;5104;50.720;7.044;2023-01-04T15:42:48;13.20;99.90
10129;DHT22;5104;50.720;7.044;2023-01-04T15:45:23;13.10;99.90
10129;DHT22;5104;50.720;7.044;2023-01-04T15:47:50;13.10;99.90
10129;DHT22;5104;50.720;7.044;2023-01-04T15:50:17;13.10;99.90
10129;DHT22;5104;50.720;7.044;2023-01-04T15:52:44;13.10;99.90
10129;DHT22;5104;50.720;7.044;2023-01-04T15:55:13;13.10;99.90
10129;DHT22;5104;50.720;7.044;2023-01-04T15:57:40;13.10;99.90
10129;DHT22;5104;50.720;7.044;2023-01-04T16:00:08;13.10;99.90
10129;DHT22;5104;50.720;7.044;2023-01-04T16:02:35;13.10;99.90
10129;DHT22;5104;50.720;7.044;2023-01-04T16:05:02;13.10;99.90
10129;DHT22;5104;50.720;7.044;2023-01-04T16:07:28;13.10;99.90
10129;DHT22;5104;50.720;7.044;2023-01-04T16:09:55;13.10;99.90
10129;DHT22;5104;50.720;7.044;2023-01-04T16:12:23;13.10;99.90
10129;DHT22;5104;50.720;7.044;2023-01-04T16:15:11;13.20;99.90
10129;DHT22;5104;50.720;7.044;2023-01-04T16:17:39;13.20;99.90
10129;DHT22;5104;50.720;7.044;2023-01-04T16:20:07;13.20;99.90
10129;DHT22;5104;50.720;7.044;2023-01-04T16:22:34;13.20;99.90
10129;DHT22;5104;50.720;7.044;2023-01-04T16:25:01;13.20;99.90
10129;DHT22;5104;50.720;7.044;2023-01-04T16:27:30;13.10;99.90
10129;DHT22;5104;50.720;7.044;2023-01-04T16:29:57;13.10;99.90